Time;durP1;ratioP1;P1;durP2;ratioP2;P2;SDS_P1;SDS_P2;PMS_P1;PMS_P2;Temp;Humidity;BMP_temperature;BMP_pressure;BME280_temperature;BME280_humidity;BME280_pressure;Samples;Min_cycle;Max_cycle;Signal;HPM_P1;HPM_P2
2021/03/14 00:00:45;;;;;;;1.05;0.80;;;4.20;99.90;;;;;;4919375;29;20096;-89
2021/03/14 00:03:12;;;;;;;2.20;0.90;;;4.00;99.90;;;;;;4902056;29;20036;-89
2021/03/14 00:05:40;;;;;;;2.50;1.00;;;4.00;99.90;;;;;;4902107;29;20032;-88
2021/03/14 00:08:07;;;;;;;1.65;1.00;;;4.00;99.90;;;;;;4902148;29;20034;-89
2021/03/14 00:10:33;;;;;;;1.60;0.60;;;4.00;99.90;;;;;;4902408;29;20038;-87
2021/03/14 00:13:00;;;;;;;1.05;0.90;;;3.90;99.90;;;;;;4918947;29;20032;-88
2021/03/14 00:15:26;;;;;;;1.42;0.80;;;3.80;99.90;;;;;;4901803;29;20125;-87
2021/03/14 00:17:52;;;;;;;1.58;0.80;;;3.90;99.90;;;;;;4901795;29;20103;-87
2021/03/14 00:20:18;;;;;;;1.65;0.93;;;4.10;99.90;;;;;;4901723;29;20021;-87
2021/03/14 00:22:45;;;;;;;1.77;0.80;;;4.10;99.90;;;;;;4901648;29;20031;-86
2021/03/14 00:25:11;;;;;;;0.63;0.60;;;4.20;99.90;;;;;;4918560;29;20384;-86
2021/03/14 00:27:37;;;;;;;1.15;0.80;;;4.20;99.90;;;;;;4901506;29;20552;-85
2021/03/14 00:30:05;;;;;;;1.33;0.90;;;4.20;99.90;;;;;;4901449;29;20028;-84
2021/03/14 00:32:30;;;;;;;1.65;0.80;;;4.20;99.90;;;;;;4901351;29;20031;-83
2021/03/14 00:34:56;;;;;;;1.20;0.80;;;4.20;99.90;;;;;;4901271;29;20032;-83
2021/03/14 00:37:22;;;;;;;1.67;1.00;;;4.20;99.90;;;;;;4901305;29;20028;-84
2021/03/14 00:39:48;;;;;;;1.60;0.80;;;4.10;99.90;;;;;;4918281;29;20107;-84
2021/03/14 00:42:13;;;;;;;1.13;0.80;;;4.10;99.90;;;;;;4901273;29;20024;-85
2021/03/14 00:44:39;;;;;;;1.00;0.70;;;4.10;99.90;;;;;;4901229;29;20035;-85
2021/03/14 00:47:05;;;;;;;0.85;0.70;;;4.20;99.90;;;;;;4901115;29;20024;-84
2021/03/14 00:49:31;;;;;;;1.95;0.75;;;4.20;99.90;;;;;;4901221;29;20079;-84
2021/03/14 00:51:56;;;;;;;1.58;0.80;;;4.20;99.90;;;;;;4900969;29;20029;-84
2021/03/14 00:54:22;;;;;;;1.75;0.77;;;4.40;99.90;;;;;;4901107;29;20025;-84
2021/03/14 00:56:48;;;;;;;1.30;0.60;;;4.40;99.90;;;;;;4900975;29;20111;-85
2021/03/14 00:59:13;;;;;;;2.05;0.70;;;4.50;99.90;;;;;;4917980;29;20434;-85
2021/03/14 01:01:39;;;;;;;1.02;0.65;;;4.50;99.90;;;;;;4917917;29;20388;-85
2021/03/14 01:04:05;;;;;;;0.80;0.70;;;4.60;99.90;;;;;;4900861;29;20024;-85
2021/03/14 01:06:31;;;;;;;0.93;0.68;;;4.60;99.90;;;;;;4900012;29;20039;-84
2021/03/14 01:08:57;;;;;;;1.30;0.60;;;4.60;99.90;;;;;;4917785;29;20032;-84
2021/03/14 01:11:23;;;;;;;1.33;0.70;;;4.60;99.90;;;;;;4901330;29;20488;-85
2021/03/14 01:13:49;;;;;;;0.90;0.60;;;4.60;99.90;;;;;;4900713;29;20060;-85
2021/03/14 01:16:15;;;;;;;0.80;0.70;;;4.60;99.90;;;;;;4900581;29;20047;-85
2021/03/14 01:18:40;;;;;;;0.50;0.50;;;4.60;99.90;;;;;;4900638;29;20028;-85
2021/03/14 01:21:07;;;;;;;1.10;0.50;;;4.70;99.90;;;;;;4900616;29;20024;-85
2021/03/14 01:23:32;;;;;;;0.50;0.40;;;4.60;99.90;;;;;;4900499;29;20047;-85
2021/03/14 01:25:58;;;;;;;0.52;0.40;;;4.70;99.90;;;;;;4900876;29;20025;-85
2021/03/14 01:28:24;;;;;;;0.40;0.40;;;4.60;99.90;;;;;;4917483;29;20059;-85
2021/03/14 01:30:50;;;;;;;0.50;0.50;;;4.70;99.90;;;;;;4900542;29;20039;-85
2021/03/14 01:33:15;;;;;;;0.93;0.57;;;4.60;99.90;;;;;;4917410;29;20036;-85
2021/03/14 01:35:41;;;;;;;0.75;0.50;;;4.70;99.90;;;;;;4900443;29;20032;-85
2021/03/14 01:38:07;;;;;;;0.80;0.57;;;4.70;99.90;;;;;;4900412;29;20028;-85
2021/03/14 01:40:33;;;;;;;0.55;0.50;;;4.70;99.90;;;;;;4900387;29;20051;-85
2021/03/14 01:42:58;;;;;;;1.23;0.40;;;4.70;99.90;;;;;;4917335;29;20027;-85
2021/03/14 01:45:25;;;;;;;0.38;0.38;;;4.70;99.90;;;;;;4900312;29;20063;-85
2021/03/14 01:47:53;;;;;;;0.55;0.45;;;4.70;99.90;;;;;;4900177;29;20443;-85
2021/03/14 01:50:24;;;;;;;0.60;0.50;;;4.80;99.90;;;;;;4900337;29;20030;-85
2021/03/14 01:52:51;;;;;;;0.60;0.50;;;4.80;99.90;;;;;;4900132;29;20508;-86
2021/03/14 01:55:18;;;;;;;0.77;0.47;;;4.70;99.90;;;;;;4900182;29;20087;-85
2021/03/14 01:57:45;;;;;;;0.30;0.30;;;4.70;99.90;;;;;;4900281;29;20123;-85
2021/03/14 02:00:13;;;;;;;0.60;0.60;;;4.80;99.90;;;;;;4900268;29;20024;-85
2021/03/14 02:02:40;;;;;;;0.82;0.40;;;4.60;99.90;;;;;;4900198;29;20024;-85
2021/03/14 02:05:08;;;;;;;0.68;0.50;;;4.50;99.90;;;;;;4900006;29;20035;-86
2021/03/14 02:07:34;;;;;;;0.50;0.50;;;4.40;99.90;;;;;;4900157;29;20392;-85
2021/03/14 02:10:01;;;;;;;0.75;0.43;;;4.40;99.90;;;;;;4900111;29;20036;-85
2021/03/14 02:12:28;;;;;;;0.57;0.40;;;4.40;99.90;;;;;;4900153;29;20036;-85
2021/03/14 02:14:59;;;;;;;1.40;0.50;;;4.50;99.90;;;;;;4900013;29;20028;-85
2021/03/14 02:17:31;;;;;;;0.50;0.50;;;4.50;99.90;;;;;;4919422;29;20027;-84
2021/03/14 02:20:06;;;;;;;0.50;0.40;;;4.70;99.90;;;;;;4903864;29;20021;-83
2021/03/14 02:22:32;;;;;;;0.40;0.40;;;4.60;99.90;;;;;;4904103;29;20024;-85
2021/03/14 02:25:00;;;;;;;0.95;0.50;;;4.50;99.90;;;;;;4903763;29;20048;-84
2021/03/14 02:27:27;;;;;;;0.50;0.50;;;4.50;99.90;;;;;;4903675;29;20111;-84
2021/03/14 02:29:54;;;;;;;2.30;0.60;;;4.60;99.90;;;;;;4920542;29;20024;-84
2021/03/14 02:32:21;;;;;;;0.40;0.32;;;4.60;99.90;;;;;;4903577;29;20028;-83
2021/03/14 02:34:53;;;;;;;0.43;0.40;;;4.50;99.90;;;;;;4920491;29;20079;-83
2021/03/14 02:37:20;;;;;;;2.45;0.40;;;4.40;99.90;;;;;;4903599;29;20032;-84
2021/03/14 02:39:47;;;;;;;1.20;0.43;;;4.50;99.90;;;;;;4903464;29;20020;-84
2021/03/14 02:42:14;;;;;;;0.60;0.45;;;4.40;99.90;;;;;;4903557;29;20074;-83
2021/03/14 02:44:44;;;;;;;3.88;0.50;;;4.50;99.90;;;;;;4903419;29;20496;-84
2021/03/14 02:47:10;;;;;;;0.50;0.50;;;4.60;99.90;;;;;;4903896;29;20048;-84
2021/03/14 02:49:38;;;;;;;0.80;0.50;;;4.50;99.90;;;;;;4903387;29;20024;-84
2021/03/14 02:52:05;;;;;;;1.67;0.75;;;4.40;99.90;;;;;;4903129;29;20028;-84
2021/03/14 02:54:33;;;;;;;1.25;0.63;;;4.40;99.90;;;;;;4903309;29;20032;-84
2021/03/14 02:57:00;;;;;;;0.70;0.52;;;4.50;99.90;;;;;;4903068;29;20065;-84
2021/03/14 02:59:26;;;;;;;1.05;0.52;;;4.60;99.90;;;;;;4920121;29;20030;-84
2021/03/14 03:01:53;;;;;;;0.60;0.50;;;4.50;99.90;;;;;;4920095;29;20027;-84
2021/03/14 03:04:23;;;;;;;0.68;0.50;;;4.30;99.90;;;;;;4919940;29;20035;-85
2021/03/14 03:06:49;;;;;;;0.52;0.47;;;4.50;99.90;;;;;;4903136;29;20036;-84
2021/03/14 03:09:16;;;;;;;0.68;0.55;;;4.60;99.90;;;;;;4902955;29;20028;-84
2021/03/14 03:11:43;;;;;;;0.88;0.50;;;4.50;99.90;;;;;;4919902;29;20032;-84
2021/03/14 03:14:13;;;;;;;1.45;0.57;;;4.50;99.90;;;;;;4902754;29;20107;-84
2021/03/14 03:16:41;;;;;;;0.63;0.40;;;4.40;99.90;;;;;;4902740;29;20025;-84
2021/03/14 03:19:11;;;;;;;0.70;0.40;;;4.40;99.90;;;;;;4902788;29;20028;-84
2021/03/14 03:21:37;;;;;;;0.60;0.40;;;4.50;99.90;;;;;;4902887;29;20417;-84
2021/03/14 03:24:04;;;;;;;0.70;0.50;;;4.50;99.90;;;;;;4919721;29;20028;-84
2021/03/14 03:26:30;;;;;;;0.60;0.60;;;4.60;99.90;;;;;;4902623;29;20032;-84
2021/03/14 03:28:56;;;;;;;0.98;0.50;;;4.50;99.90;;;;;;4901643;29;20055;-84
2021/03/14 03:31:21;;;;;;;0.40;0.40;;;4.50;99.90;;;;;;4902516;29;20028;-84
2021/03/14 03:33:47;;;;;;;0.50;0.50;;;4.50;99.90;;;;;;4902528;29;20024;-84
2021/03/14 03:36:13;;;;;;;0.68;0.55;;;4.50;99.90;;;;;;4902494;29;20032;-83
2021/03/14 03:38:39;;;;;;;2.10;0.57;;;4.60;99.90;;;;;;4902515;29;20111;-84
2021/03/14 03:41:04;;;;;;;0.98;0.70;;;4.50;99.90;;;;;;4902449;29;20396;-84
2021/03/14 03:43:36;;;;;;;0.90;0.70;;;4.40;99.90;;;;;;4902439;29;20159;-84
2021/03/14 03:46:08;;;;;;;1.10;0.75;;;4.50;99.90;;;;;;4902336;29;20024;-84
2021/03/14 03:48:42;;;;;;;0.50;0.50;;;4.50;99.90;;;;;;4902328;29;20464;-83
2021/03/14 03:51:08;;;;;;;;;;;4.40;99.90;;;;;;4902687;29;20028;-83
2021/03/14 03:53:37;;;;;;;1.02;0.70;;;4.50;99.90;;;;;;4919048;29;19923;-83
2021/03/14 03:56:03;;;;;;;0.80;0.70;;;4.40;99.90;;;;;;4919085;29;20024;-83
2021/03/14 03:58:30;;;;;;;0.80;0.50;;;4.40;99.90;;;;;;4902122;29;20032;-83
2021/03/14 04:00:57;;;;;;;0.60;0.50;;;4.40;99.90;;;;;;4902047;29;20055;-82
2021/03/14 04:03:23;;;;;;;0.75;0.60;;;4.40;99.90;;;;;;4902023;29;20028;-82
2021/03/14 04:05:55;;;;;;;0.85;0.63;;;4.20;99.90;;;;;;4918976;29;20024;-82
2021/03/14 04:08:21;;;;;;;0.90;0.60;;;4.20;99.90;;;;;;4901921;29;20084;-82
2021/03/14 04:10:48;;;;;;;1.15;0.50;;;4.20;99.90;;;;;;4901911;29;20047;-82
2021/03/14 04:13:15;;;;;;;0.63;0.60;;;4.20;99.90;;;;;;4918796;29;20620;-82
2021/03/14 04:15:41;;;;;;;1.15;0.68;;;4.10;99.90;;;;;;4901591;29;20162;-82
2021/03/14 04:18:08;;;;;;;0.90;0.65;;;4.10;99.90;;;;;;4901759;29;20024;-83
2021/03/14 04:20:37;;;;;;;0.85;0.60;;;3.90;99.90;;;;;;4901706;29;20047;-82
2021/03/14 04:23:09;;;;;;;0.60;0.60;;;3.90;99.90;;;;;;4901647;29;20047;-82
2021/03/14 04:25:36;;;;;;;0.85;0.50;;;3.80;99.90;;;;;;4901548;29;20028;-82
2021/03/14 04:28:02;;;;;;;0.85;0.60;;;4.00;99.90;;;;;;4918523;29;20028;-83
2021/03/14 04:30:31;;;;;;;1.15;0.70;;;4.00;99.90;;;;;;4918708;29;20028;-83
2021/03/14 04:32:57;;;;;;;0.55;0.55;;;3.80;99.90;;;;;;4901422;29;20024;-83
2021/03/14 04:35:24;;;;;;;0.45;0.45;;;3.70;99.90;;;;;;4901333;29;20034;-83
2021/03/14 04:37:51;;;;;;;1.05;0.60;;;3.60;99.90;;;;;;4901345;29;20547;-82
2021/03/14 04:40:17;;;;;;;0.93;0.60;;;3.60;99.90;;;;;;4901141;29;20024;-83
2021/03/14 04:42:47;;;;;;;0.50;0.50;;;3.40;99.90;;;;;;4901260;29;20092;-82
2021/03/14 04:45:13;;;;;;;1.75;0.55;;;3.30;99.90;;;;;;4901302;29;20024;-83
2021/03/14 04:47:41;;;;;;;0.50;0.50;;;3.40;99.90;;;;;;4901267;29;20055;-83
2021/03/14 04:50:08;;;;;;;0.75;0.60;;;3.40;99.90;;;;;;4901157;29;20039;-83
2021/03/14 04:52:36;;;;;;;0.50;0.40;;;3.50;99.90;;;;;;4900887;29;20047;-83
2021/03/14 04:55:02;;;;;;;0.50;0.50;;;3.60;99.90;;;;;;4918032;29;20051;-83
2021/03/14 04:57:29;;;;;;;0.40;0.40;;;3.80;99.90;;;;;;4901061;29;20031;-82
2021/03/14 04:59:56;;;;;;;0.63;0.50;;;3.90;99.90;;;;;;4900835;29;20499;-83
2021/03/14 05:02:23;;;;;;;0.65;0.50;;;3.90;99.90;;;;;;4900968;29;20031;-83
2021/03/14 05:04:50;;;;;;;0.40;0.40;;;3.90;99.90;;;;;;4917773;29;20516;-83
2021/03/14 05:07:18;;;;;;;1.10;0.50;;;3.90;99.90;;;;;;4900833;29;20028;-82
2021/03/14 05:09:44;;;;;;;1.15;0.50;;;3.90;99.90;;;;;;4900879;29;20544;-82
2021/03/14 05:12:11;;;;;;;0.80;0.60;;;3.90;99.90;;;;;;4900778;29;20384;-83
2021/03/14 05:14:38;;;;;;;0.95;0.60;;;4.00;99.90;;;;;;4917749;29;20024;-83
2021/03/14 05:17:07;;;;;;;1.27;0.60;;;4.00;99.90;;;;;;4900633;29;20113;-83
2021/03/14 05:19:33;;;;;;;0.57;0.50;;;4.00;99.90;;;;;;4917648;29;20107;-83
2021/03/14 05:22:00;;;;;;;0.52;0.50;;;4.10;99.90;;;;;;4900647;29;20107;-83
2021/03/14 05:24:27;;;;;;;0.68;0.60;;;4.10;99.90;;;;;;4917891;29;20485;-83
2021/03/14 05:26:56;;;;;;;2.17;1.20;;;4.10;99.90;;;;;;4900517;29;20031;-82
2021/03/14 05:29:23;;;;;;;11.68;4.03;;;4.10;99.90;;;;;;4900517;29;20028;-83
2021/03/14 05:31:49;;;;;;;1.08;0.70;;;4.10;99.90;;;;;;4917453;29;20036;-83
2021/03/14 05:34:17;;;;;;;0.77;0.57;;;4.10;99.90;;;;;;4917478;29;20036;-83
2021/03/14 05:36:44;;;;;;;1.25;0.90;;;4.00;99.90;;;;;;4917810;29;20468;-83
2021/03/14 05:39:10;;;;;;;2.63;0.93;;;4.00;99.90;;;;;;4900390;29;20020;-84
2021/03/14 05:41:37;;;;;;;1.85;1.08;;;4.00;99.90;;;;;;4917607;29;20424;-83
2021/03/14 05:44:05;;;;;;;2.60;1.05;;;3.90;99.90;;;;;;4917406;29;20023;-83
2021/03/14 05:46:31;;;;;;;3.58;1.02;;;3.90;99.90;;;;;;4900333;29;20031;-83
2021/03/14 05:48:57;;;;;;;3.05;1.40;;;3.90;99.90;;;;;;4900267;29;20039;-82
2021/03/14 05:51:29;;;;;;;2.05;1.05;;;3.90;99.90;;;;;;4916787;29;20024;-83
2021/03/14 05:53:57;;;;;;;7.53;1.50;;;3.80;99.90;;;;;;4900103;29;20048;-82
2021/03/14 05:56:24;;;;;;;2.72;1.33;;;3.80;99.90;;;;;;4900254;29;20043;-82
2021/03/14 05:58:51;;;;;;;5.68;1.23;;;3.70;99.90;;;;;;4900107;29;20150;-83
2021/03/14 06:01:20;;;;;;;4.93;1.30;;;3.80;99.90;;;;;;4917128;29;20035;-82
2021/03/14 06:03:46;;;;;;;3.92;1.48;;;3.80;99.90;;;;;;4917168;29;20020;-83
2021/03/14 06:06:14;;;;;;;3.47;1.45;;;3.80;99.90;;;;;;4900040;29;20028;-84
2021/03/14 06:08:40;;;;;;;4.32;1.33;;;3.70;99.90;;;;;;4900244;29;20028;-83
2021/03/14 06:11:07;;;;;;;4.40;1.13;;;3.70;99.90;;;;;;4917117;29;20036;-83
2021/03/14 06:13:34;;;;;;;4.40;1.67;;;3.50;99.90;;;;;;4900127;29;20052;-83
2021/03/14 06:15:59;;;;;;;7.13;1.20;;;3.70;99.90;;;;;;4917021;29;20392;-83
2021/03/14 06:18:26;;;;;;;4.70;1.70;;;3.80;99.90;;;;;;4900146;29;20020;-83
2021/03/14 06:20:52;;;;;;;5.85;1.40;;;3.80;99.90;;;;;;4917039;29;20028;-83
2021/03/14 06:23:19;;;;;;;5.00;1.60;;;3.80;99.90;;;;;;4917024;29;20028;-83
2021/03/14 06:25:49;;;;;;;4.53;1.30;;;3.80;99.90;;;;;;4917005;29;20070;-83
2021/03/14 06:28:16;;;;;;;4.13;1.30;;;3.70;99.90;;;;;;4899973;29;20104;-83
2021/03/14 06:30:43;;;;;;;6.25;1.30;;;3.70;99.90;;;;;;4916963;29;20468;-83
2021/03/14 06:33:18;;;;;;;4.28;1.50;;;3.70;99.90;;;;;;4899816;29;20032;-85
2021/03/14 06:35:52;;;;;;;4.80;1.50;;;3.70;99.90;;;;;;4899957;29;20028;-85
2021/03/14 06:38:17;;;;;;;;;;;3.80;99.90;;;;;;4900371;29;20029;-83
2021/03/14 06:40:44;;;;;;;3.53;1.60;;;3.90;99.90;;;;;;4916810;29;19914;-82
2021/03/14 06:43:14;;;;;;;2.58;1.42;;;4.00;99.90;;;;;;4899896;29;20118;-82
2021/03/14 06:45:41;;;;;;;3.03;1.30;;;3.90;99.90;;;;;;4899793;29;20365;-84
2021/03/14 06:48:07;;;;;;;6.75;1.67;;;4.00;99.90;;;;;;4899757;29;20025;-82
2021/03/14 06:50:34;;;;;;;6.55;1.60;;;4.00;99.90;;;;;;4900011;29;20544;-84
2021/03/14 06:53:17;;;;;;;6.05;1.48;;;4.00;99.90;;;;;;4899530;29;20048;-82
2021/03/14 06:55:44;;;;;;;4.10;1.25;;;3.80;99.90;;;;;;4899703;29;20397;-82
2021/03/14 06:58:40;;;;;;;2.30;1.10;;;4.00;99.90;;;;;;4899704;29;20024;-84
2021/03/14 07:01:16;;;;;;;4.55;1.30;;;4.30;99.90;;;;;;4899363;29;20036;-82
2021/03/14 07:03:47;;;;;;;7.65;1.67;;;4.30;99.90;;;;;;4900782;29;20024;-82
2021/03/14 07:06:14;;;;;;;5.82;1.17;;;4.30;99.90;;;;;;4903027;29;20036;-83
2021/03/14 07:08:40;;;;;;;8.80;1.80;;;4.20;99.90;;;;;;4902914;29;20060;-82
2021/03/14 07:11:07;;;;;;;6.07;1.58;;;4.20;99.90;;;;;;4902901;29;20028;-82
2021/03/14 07:13:34;;;;;;;4.05;1.20;;;4.30;99.90;;;;;;4919888;29;20107;-83
2021/03/14 07:15:59;;;;;;;4.03;1.40;;;4.30;99.90;;;;;;4902757;29;20028;-82
2021/03/14 07:18:26;;;;;;;4.45;1.10;;;4.30;99.90;;;;;;4902767;29;20528;-83
2021/03/14 07:20:52;;;;;;;8.32;1.42;;;4.40;99.90;;;;;;4902795;29;20024;-83
2021/03/14 07:23:30;;;;;;;8.05;1.90;;;4.50;99.90;;;;;;4902730;29;20028;-83
2021/03/14 07:25:56;;;;;;;6.28;1.27;;;4.50;99.90;;;;;;4902674;29;20559;-82
2021/03/14 07:28:22;;;;;;;5.38;1.40;;;4.60;99.90;;;;;;4902675;29;20055;-82
2021/03/14 07:30:49;;;;;;;6.65;1.35;;;4.60;99.90;;;;;;4902506;29;20092;-82
2021/03/14 07:33:15;;;;;;;5.65;1.35;;;4.60;99.90;;;;;;4902476;29;20484;-85
2021/03/14 07:35:41;;;;;;;5.75;1.52;;;4.50;99.90;;;;;;4902469;29;20083;-84
2021/03/14 07:38:07;;;;;;;6.03;1.45;;;4.40;99.90;;;;;;4902527;29;20080;-84
2021/03/14 07:40:32;;;;;;;5.97;1.10;;;4.40;99.90;;;;;;4902469;29;20020;-83
2021/03/14 07:43:00;;;;;;;5.47;1.20;;;4.40;99.90;;;;;;4919800;29;20465;-84
2021/03/14 07:45:27;;;;;;;5.63;1.35;;;4.40;99.90;;;;;;4902331;29;20032;-84
2021/03/14 07:47:53;;;;;;;5.95;1.80;;;4.40;99.90;;;;;;4902425;29;20056;-84
2021/03/14 07:50:29;;;;;;;5.20;1.40;;;4.10;99.90;;;;;;4919272;29;20071;-84
2021/03/14 07:53:08;;;;;;;5.80;1.48;;;4.10;99.90;;;;;;4902059;29;20066;-83
2021/03/14 07:55:36;;;;;;;3.97;1.58;;;4.10;99.90;;;;;;4919206;29;20511;-83
2021/03/14 07:58:04;;;;;;;4.20;1.50;;;3.80;99.90;;;;;;4902197;29;20020;-84
2021/03/14 08:00:34;;;;;;;6.90;1.83;;;3.90;99.90;;;;;;4919084;29;20460;-84
2021/03/14 08:03:02;;;;;;;6.15;1.52;;;3.80;99.90;;;;;;4901856;29;20035;-84
2021/03/14 08:05:40;;;;;;;6.22;1.58;;;3.90;99.90;;;;;;4902026;29;20032;-84
2021/03/14 08:08:07;;;;;;;5.85;1.42;;;4.00;99.90;;;;;;4903026;29;20032;-84
2021/03/14 08:10:41;;;;;;;4.38;1.48;;;4.00;99.90;;;;;;4918896;29;20083;-84
2021/03/14 08:13:34;;;;;;;9.85;1.88;;;3.90;99.90;;;;;;4918883;29;20481;-84
2021/03/14 08:16:04;;;;;;;4.70;1.90;;;4.00;99.90;;;;;;4897766;29;20032;-83
2021/03/14 08:18:50;;;;;;;6.88;1.65;;;4.10;99.90;;;;;;4918734;29;20024;-84
2021/03/14 08:21:22;;;;;;;7.05;1.45;;;4.10;99.90;;;;;;4901709;29;20024;-84
2021/03/14 08:23:53;;;;;;;7.72;1.67;;;4.00;99.90;;;;;;4901704;29;20079;-84
2021/03/14 08:26:19;;;;;;;5.47;1.40;;;4.00;99.90;;;;;;4902014;29;20039;-84
2021/03/14 08:29:04;;;;;;;4.20;1.58;;;4.10;99.90;;;;;;4901658;29;20028;-84
2021/03/14 08:31:46;;;;;;;7.03;1.48;;;4.10;99.90;;;;;;4918365;29;20028;-85
2021/03/14 08:34:27;;;;;;;8.32;2.10;;;4.30;99.90;;;;;;4918294;29;20075;-84
2021/03/14 08:36:54;;;;;;;5.95;1.60;;;4.30;99.90;;;;;;4901173;29;20024;-85
2021/03/14 08:39:31;;;;;;;6.22;1.80;;;4.50;99.90;;;;;;4901035;29;20024;-85
2021/03/14 08:41:59;;;;;;;4.78;1.77;;;4.50;99.90;;;;;;4901193;29;20036;-85
2021/03/14 08:44:33;;;;;;;9.25;1.75;;;4.60;99.90;;;;;;4901193;29;20122;-85
2021/03/14 08:47:16;;;;;;;8.38;1.90;;;4.80;99.90;;;;;;4901304;29;20515;-85
2021/03/14 08:49:48;;;;;;;4.15;1.70;;;4.70;99.90;;;;;;4901178;29;20132;-85
2021/03/14 08:52:15;;;;;;;7.82;1.88;;;4.50;99.90;;;;;;4900991;29;20835;-85
2021/03/14 08:54:46;;;;;;;5.82;1.95;;;4.40;99.90;;;;;;4901076;29;20039;-85
2021/03/14 08:57:17;;;;;;;5.32;1.63;;;4.50;99.90;;;;;;4901037;29;20051;-85
2021/03/14 08:59:47;;;;;;;10.18;3.72;;;4.50;99.90;;;;;;4901020;29;20043;-86
2021/03/14 09:02:20;;;;;;;11.02;2.45;;;4.40;99.90;;;;;;4900871;29;20094;-86
2021/03/14 09:04:48;;;;;;;6.63;2.20;;;4.50;99.90;;;;;;4900981;29;20024;-86
2021/03/14 09:07:14;;;;;;;3.70;1.42;;;4.60;99.90;;;;;;4917854;29;20036;-85
2021/03/14 09:09:40;;;;;;;2.55;1.38;;;4.40;99.90;;;;;;4900695;29;20119;-85
2021/03/14 09:12:09;;;;;;;6.40;1.80;;;4.30;99.90;;;;;;4900770;29;20555;-86
2021/03/14 09:14:43;;;;;;;4.75;1.30;;;4.30;99.90;;;;;;4900814;29;20028;-85
2021/03/14 09:17:10;;;;;;;;;;;4.60;99.90;;;;;;4901106;29;20032;-86
2021/03/14 09:19:46;;;;;;;9.77;2.58;;;4.50;99.90;;;;;;4900699;29;20023;-86
2021/03/14 09:22:22;;;;;;;6.07;1.73;;;4.50;99.90;;;;;;4900676;29;20056;-86
2021/03/14 09:24:50;;;;;;;4.18;1.63;;;4.70;99.90;;;;;;4900536;29;20024;-86
2021/03/14 09:27:24;;;;;;;3.35;1.17;;;4.80;99.90;;;;;;4899824;29;20480;-85
2021/03/14 09:29:59;;;;;;;4.97;1.52;;;4.70;99.90;;;;;;4900577;29;20024;-85
2021/03/14 09:32:35;;;;;;;3.53;1.20;;;5.20;99.90;;;;;;4900420;29;20532;-85
2021/03/14 09:35:11;;;;;;;3.58;1.42;;;5.70;99.90;;;;;;4900493;29;20071;-84
2021/03/14 09:37:38;;;;;;;6.97;1.65;;;6.30;99.90;;;;;;4900187;29;20028;-85
2021/03/14 09:40:15;;;;;;;3.55;1.52;;;6.50;99.90;;;;;;4900332;29;20032;-86
2021/03/14 09:42:45;;;;;;;2.97;1.15;;;6.90;99.90;;;;;;4900347;29;20039;-87
2021/03/14 09:45:14;;;;;;;3.85;1.10;;;6.90;99.90;;;;;;4900197;29;20029;-87
2021/03/14 09:48:01;;;;;;;5.00;1.20;;;6.80;99.90;;;;;;4900468;29;20028;-87
2021/03/14 09:50:28;;;;;;;4.03;1.20;;;6.30;99.90;;;;;;4900391;29;20078;-88
2021/03/14 09:52:58;;;;;;;3.80;2.28;;;6.30;99.90;;;;;;4900154;29;20452;-88
2021/03/14 09:55:31;;;;;;;5.97;2.30;;;6.40;99.90;;;;;;4900273;29;20032;-87
2021/03/14 09:57:59;;;;;;;4.85;1.92;;;6.40;99.90;;;;;;4900361;29;20071;-87
2021/03/14 10:00:30;;;;;;;4.15;1.00;;;6.40;99.90;;;;;;4900258;29;20036;-87
2021/03/14 10:03:01;;;;;;;3.75;1.50;;;6.50;99.90;;;;;;4917248;29;20503;-86
2021/03/14 10:05:34;;;;;;;7.88;1.83;;;6.60;99.90;;;;;;4900224;29;20032;-88
2021/03/14 10:07:59;;;;;;;6.85;1.50;;;6.20;99.90;;;;;;4900203;29;20042;-87
2021/03/14 10:10:25;;;;;;;5.20;1.50;;;6.00;99.90;;;;;;4900133;29;20536;-87
2021/03/14 10:12:52;;;;;;;7.88;2.28;;;6.10;99.90;;;;;;4900110;29;20119;-88
2021/03/14 10:15:18;;;;;;;5.68;2.03;;;6.20;99.90;;;;;;4900094;29;20032;-87
2021/03/14 10:17:45;;;;;;;6.03;1.77;;;6.20;99.90;;;;;;4899937;29;20453;-88
2021/03/14 10:20:12;;;;;;;5.75;2.53;;;6.10;99.90;;;;;;4900029;29;20381;-87
2021/03/14 10:22:38;;;;;;;6.22;1.50;;;6.10;99.90;;;;;;4916918;29;20029;-87
2021/03/14 10:25:06;;;;;;;5.30;1.73;;;5.90;99.90;;;;;;4899917;29;20388;-88
2021/03/14 10:27:31;;;;;;;4.63;1.50;;;6.10;99.90;;;;;;4917225;29;20402;-87
2021/03/14 10:29:59;;;;;;;6.47;1.30;;;6.00;99.90;;;;;;4899969;29;20056;-88
2021/03/14 10:32:28;;;;;;;6.50;1.15;;;6.10;99.90;;;;;;4899801;29;20028;-87
2021/03/14 10:34:57;;;;;;;4.72;1.40;;;6.30;99.90;;;;;;4916874;29;20028;-87
2021/03/14 10:37:27;;;;;;;3.30;1.58;;;6.40;99.90;;;;;;4917729;29;20043;-88
2021/03/14 10:40:13;;;;;;;5.68;1.88;;;6.00;99.90;;;;;;4920416;29;20390;-86
2021/03/14 10:42:40;;;;;;;8.82;1.55;;;5.90;99.90;;;;;;4920400;29;20031;-87
2021/03/14 10:45:10;;;;;;;7.38;2.10;;;5.70;99.90;;;;;;4904362;29;20488;-87
2021/03/14 10:47:37;;;;;;;5.20;1.55;;;5.80;99.90;;;;;;4903319;29;20084;-87
2021/03/14 10:50:11;;;;;;;4.47;1.50;;;6.00;99.90;;;;;;4903344;29;20071;-87
2021/03/14 10:52:37;;;;;;;;;;;6.00;99.90;;;;;;4903543;29;20074;-87
2021/03/14 10:55:30;;;;;;;4.30;1.30;;;6.30;99.90;;;;;;4903159;29;19907;-87
2021/03/14 10:58:18;;;;;;;5.90;1.40;;;6.40;99.90;;;;;;4903188;29;20100;-86
2021/03/14 11:00:49;;;;;;;6.15;1.90;;;6.30;99.90;;;;;;4903045;29;20028;-87
2021/03/14 11:03:29;;;;;;;5.10;3.03;;;6.30;99.90;;;;;;4919957;29;20028;-86
2021/03/14 11:06:24;;;;;;;3.63;1.75;;;6.80;99.90;;;;;;4902958;29;20468;-87
2021/03/14 11:08:55;;;;;;;3.03;1.10;;;7.60;99.90;;;;;;4900789;29;20059;-87
2021/03/14 11:11:28;;;;;;;7.72;1.58;;;7.60;99.90;;;;;;4920008;29;20083;-86
2021/03/14 11:13:54;;;;;;;3.85;1.17;;;7.90;99.90;;;;;;4902986;29;20040;-86
2021/03/14 11:16:24;;;;;;;6.57;1.73;;;8.00;99.90;;;;;;4902587;29;20028;-86
2021/03/14 11:19:00;;;;;;;10.35;1.55;;;8.30;99.90;;;;;;4902881;29;20033;-87
2021/03/14 11:21:25;;;;;;;6.13;1.48;;;8.60;99.90;;;;;;4919725;29;20028;-87
2021/03/14 11:23:51;;;;;;;8.82;1.75;;;8.20;99.90;;;;;;4902787;29;20490;-88
2021/03/14 11:26:17;;;;;;;3.20;1.13;;;7.40;99.90;;;;;;4902717;29;20472;-88
2021/03/14 11:28:45;;;;;;;4.95;1.50;;;7.20;99.90;;;;;;4919584;29;20024;-87
2021/03/14 11:31:11;;;;;;;5.13;1.23;;;7.20;99.90;;;;;;4902902;29;20028;-87
2021/03/14 11:33:36;;;;;;;5.75;1.50;;;6.70;99.90;;;;;;4902591;29;20170;-87
2021/03/14 11:36:02;;;;;;;7.18;1.42;;;6.60;99.90;;;;;;4919502;29;20032;-90
2021/03/14 11:38:28;;;;;;;3.63;1.17;;;6.50;99.90;;;;;;4902513;29;20024;-87
2021/03/14 11:40:56;;;;;;;7.60;1.23;;;6.40;99.90;;;;;;4902405;29;20392;-88
2021/03/14 11:43:23;;;;;;;6.60;1.63;;;6.30;99.90;;;;;;4902589;29;20060;-88
2021/03/14 11:45:50;;;;;;;7.80;1.40;;;6.30;99.90;;;;;;4902434;29;20178;-88
2021/03/14 11:48:17;;;;;;;8.73;1.58;;;6.20;99.90;;;;;;4902274;29;20039;-90
2021/03/14 11:50:43;;;;;;;6.32;1.83;;;6.10;99.90;;;;;;4918466;29;20035;-87
2021/03/14 11:53:09;;;;;;;7.43;1.52;;;6.20;99.90;;;;;;4902170;29;20048;-88
2021/03/14 11:55:35;;;;;;;5.68;1.42;;;6.20;99.90;;;;;;4902137;29;20036;-88
2021/03/14 11:58:01;;;;;;;7.10;1.50;;;6.20;99.90;;;;;;4902164;29;20038;-88
2021/03/14 12:00:26;;;;;;;7.43;1.83;;;6.20;99.90;;;;;;4919101;29;20077;-87
2021/03/14 12:02:52;;;;;;;8.18;2.13;;;6.00;99.90;;;;;;4902037;29;20425;-88
2021/03/14 12:05:19;;;;;;;6.85;1.63;;;5.80;99.90;;;;;;4902051;29;20369;-87
2021/03/14 12:07:46;;;;;;;4.97;1.90;;;5.80;99.90;;;;;;4902026;29;20485;-88
2021/03/14 12:10:12;;;;;;;7.78;1.75;;;5.70;99.90;;;;;;4901967;29;20031;-87
2021/03/14 12:12:38;;;;;;;5.90;1.77;;;5.40;99.90;;;;;;4901895;29;20028;-87
2021/03/14 12:15:05;;;;;;;3.30;1.35;;;5.40;99.90;;;;;;4901844;29;20508;-87
2021/03/14 12:17:30;;;;;;;5.88;1.50;;;5.30;99.90;;;;;;4902547;29;20039;-87
2021/03/14 12:19:56;;;;;;;4.53;1.50;;;5.30;99.90;;;;;;4901729;29;20067;-87
2021/03/14 12:22:22;;;;;;;6.47;1.88;;;5.30;99.90;;;;;;4901672;29;20115;-86
2021/03/14 12:24:48;;;;;;;7.25;2.45;;;5.40;99.90;;;;;;4918605;29;20016;-87
2021/03/14 12:27:14;;;;;;;9.82;2.13;;;5.40;99.90;;;;;;4901581;29;20032;-87
2021/03/14 12:29:40;;;;;;;9.05;2.95;;;5.30;99.90;;;;;;4901547;29;20499;-86
2021/03/14 12:32:06;;;;;;;7.53;1.77;;;5.40;99.90;;;;;;4901472;29;20028;-87
2021/03/14 12:34:33;;;;;;;5.90;1.70;;;5.40;99.90;;;;;;4901408;29;20484;-87
2021/03/14 12:36:59;;;;;;;4.68;1.75;;;5.50;99.90;;;;;;4918234;29;20111;-87
2021/03/14 12:39:26;;;;;;;5.78;1.80;;;5.60;99.90;;;;;;4901074;29;20128;-87
2021/03/14 12:41:52;;;;;;;7.45;2.00;;;5.60;99.90;;;;;;4918563;29;20052;-87
2021/03/14 12:44:18;;;;;;;6.30;1.90;;;5.70;99.90;;;;;;4901268;29;20051;-87
2021/03/14 12:46:44;;;;;;;4.93;1.98;;;5.80;99.90;;;;;;4901245;29;20028;-87
2021/03/14 12:49:09;;;;;;;6.15;1.42;;;5.80;99.90;;;;;;4918122;29;20024;-87
2021/03/14 12:51:35;;;;;;;6.75;1.65;;;5.70;99.90;;;;;;4901087;29;20396;-87
2021/03/14 12:54:01;;;;;;;4.10;1.20;;;5.50;99.90;;;;;;4900884;29;20046;-87
2021/03/14 12:56:27;;;;;;;6.88;1.98;;;5.40;99.90;;;;;;4900961;29;20100;-87
2021/03/14 12:58:55;;;;;;;6.28;1.73;;;5.50;99.90;;;;;;4900996;29;20534;-87
2021/03/14 13:01:21;;;;;;;7.22;1.85;;;5.50;99.90;;;;;;4901039;29;20115;-87
2021/03/14 13:03:46;;;;;;;6.63;2.35;;;5.50;99.90;;;;;;4900941;29;20076;-87